sensor_id;sensor_type;location;lat;lon;timestamp;P1;durP1;ratioP1;P2;durP2;ratioP2
49592;SDS011;35499;51.482;4.264;2023-09-12T00:00:48;33.17;;;14.55;;
49592;SDS011;35499;51.482;4.264;2023-09-12T00:03:21;36.10;;;15.27;;
49592;SDS011;35499;51.482;4.264;2023-09-12T00:05:54;39.30;;;15.52;;
49592;SDS011;35499;51.482;4.264;2023-09-12T00:08:21;35.08;;;15.32;;
49592;SDS011;35499;51.482;4.264;2023-09-12T00:10:46;34.60;;;14.23;;
49592;SDS011;35499;51.482;4.264;2023-09-12T00:13:11;35.77;;;15.43;;
49592;SDS011;35499;51.482;4.264;2023-09-12T00:15:37;43.30;;;17.10;;
49592;SDS011;35499;51.482;4.264;2023-09-12T00:18:02;36.70;;;16.23;;
49592;SDS011;35499;51.482;4.264;2023-09-12T00:20:28;36.53;;;14.93;;
49592;SDS011;35499;51.482;4.264;2023-09-12T00:22:53;34.23;;;15.70;;
49592;SDS011;35499;51.482;4.264;2023-09-12T00:25:19;42.58;;;17.15;;
49592;SDS011;35499;51.482;4.264;2023-09-12T00:27:45;49.17;;;19.75;;
49592;SDS011;35499;51.482;4.264;2023-09-12T00:30:11;57.28;;;20.67;;
49592;SDS011;35499;51.482;4.264;2023-09-12T00:32:36;52.85;;;18.92;;
49592;SDS011;35499;51.482;4.264;2023-09-12T00:35:02;47.13;;;20.20;;
49592;SDS011;35499;51.482;4.264;2023-09-12T00:37:27;53.50;;;20.33;;
49592;SDS011;35499;51.482;4.264;2023-09-12T00:39:52;49.13;;;21.33;;
49592;SDS011;35499;51.482;4.264;2023-09-12T00:42:18;50.93;;;20.53;;
49592;SDS011;35499;51.482;4.264;2023-09-12T00:44:44;52.05;;;21.88;;
49592;SDS011;35499;51.482;4.264;2023-09-12T00:47:09;53.07;;;21.13;;
49592;SDS011;35499;51.482;4.264;2023-09-12T00:49:36;51.83;;;19.60;;
49592;SDS011;35499;51.482;4.264;2023-09-12T00:52:01;56.65;;;22.90;;
49592;SDS011;35499;51.482;4.264;2023-09-12T00:54:27;46.67;;;21.45;;
49592;SDS011;35499;51.482;4.264;2023-09-12T00:56:52;50.80;;;20.63;;
49592;SDS011;35499;51.482;4.264;2023-09-12T00:59:18;49.88;;;21.58;;
49592;SDS011;35499;51.482;4.264;2023-09-12T01:01:44;52.65;;;23.00;;
49592;SDS011;35499;51.482;4.264;2023-09-12T01:04:10;49.63;;;20.98;;
49592;SDS011;35499;51.482;4.264;2023-09-12T01:06:35;48.63;;;19.83;;
49592;SDS011;35499;51.482;4.264;2023-09-12T01:09:02;48.53;;;20.88;;
49592;SDS011;35499;51.482;4.264;2023-09-12T01:11:27;47.47;;;21.08;;
49592;SDS011;35499;51.482;4.264;2023-09-12T01:13:53;51.63;;;23.08;;
49592;SDS011;35499;51.482;4.264;2023-09-12T01:16:18;49.35;;;21.27;;
49592;SDS011;35499;51.482;4.264;2023-09-12T01:18:44;52.53;;;22.53;;
49592;SDS011;35499;51.482;4.264;2023-09-12T01:29:23;53.83;;;22.75;;
49592;SDS011;35499;51.482;4.264;2023-09-12T01:31:50;56.72;;;23.98;;
49592;SDS011;35499;51.482;4.264;2023-09-12T01:34:17;49.70;;;20.98;;
49592;SDS011;35499;51.482;4.264;2023-09-12T01:39:09;51.50;;;22.83;;
49592;SDS011;35499;51.482;4.264;2023-09-12T01:41:35;51.63;;;21.27;;
49592;SDS011;35499;51.482;4.264;2023-09-12T01:44:05;56.85;;;23.60;;
49592;SDS011;35499;51.482;4.264;2023-09-12T01:46:31;53.90;;;24.30;;
49592;SDS011;35499;51.482;4.264;2023-09-12T01:49:00;56.50;;;23.98;;
49592;SDS011;35499;51.482;4.264;2023-09-12T01:51:29;53.03;;;22.40;;
49592;SDS011;35499;51.482;4.264;2023-09-12T01:53:55;56.63;;;24.38;;
49592;SDS011;35499;51.482;4.264;2023-09-12T01:56:21;50.08;;;21.42;;
49592;SDS011;35499;51.482;4.264;2023-09-12T01:58:47;57.15;;;22.08;;
49592;SDS011;35499;51.482;4.264;2023-09-12T02:01:12;53.78;;;20.38;;
49592;SDS011;35499;51.482;4.264;2023-09-12T02:03:37;54.58;;;21.52;;
49592;SDS011;35499;51.482;4.264;2023-09-12T02:06:03;52.17;;;21.63;;
49592;SDS011;35499;51.482;4.264;2023-09-12T02:08:28;48.22;;;20.67;;
49592;SDS011;35499;51.482;4.264;2023-09-12T02:10:54;48.67;;;20.17;;
49592;SDS011;35499;51.482;4.264;2023-09-12T02:13:19;51.65;;;20.48;;
49592;SDS011;35499;51.482;4.264;2023-09-12T02:15:45;42.70;;;19.07;;
49592;SDS011;35499;51.482;4.264;2023-09-12T02:18:10;45.13;;;20.90;;
49592;SDS011;35499;51.482;4.264;2023-09-12T02:20:37;48.03;;;18.97;;
49592;SDS011;35499;51.482;4.264;2023-09-12T02:23:03;46.40;;;19.88;;
49592;SDS011;35499;51.482;4.264;2023-09-12T02:25:29;41.23;;;20.37;;
49592;SDS011;35499;51.482;4.264;2023-09-12T02:27:54;51.33;;;20.20;;
49592;SDS011;35499;51.482;4.264;2023-09-12T02:30:19;45.13;;;20.37;;
49592;SDS011;35499;51.482;4.264;2023-09-12T02:32:45;41.88;;;20.27;;
49592;SDS011;35499;51.482;4.264;2023-09-12T02:35:10;48.22;;;19.92;;
49592;SDS011;35499;51.482;4.264;2023-09-12T02:37:35;45.10;;;19.17;;
49592;SDS011;35499;51.482;4.264;2023-09-12T02:40:01;50.57;;;21.13;;
49592;SDS011;35499;51.482;4.264;2023-09-12T02:42:28;44.58;;;19.88;;
49592;SDS011;35499;51.482;4.264;2023-09-12T02:44:54;43.17;;;20.73;;
49592;SDS011;35499;51.482;4.264;2023-09-12T02:47:19;43.33;;;20.10;;
49592;SDS011;35499;51.482;4.264;2023-09-12T02:49:44;43.40;;;19.63;;
49592;SDS011;35499;51.482;4.264;2023-09-12T02:52:10;52.63;;;21.43;;
49592;SDS011;35499;51.482;4.264;2023-09-12T02:54:35;45.47;;;20.73;;
49592;SDS011;35499;51.482;4.264;2023-09-12T02:57:00;50.83;;;21.65;;
49592;SDS011;35499;51.482;4.264;2023-09-12T02:59:26;48.90;;;21.83;;
49592;SDS011;35499;51.482;4.264;2023-09-12T03:01:51;47.83;;;20.43;;
49592;SDS011;35499;51.482;4.264;2023-09-12T03:04:17;45.10;;;18.42;;
49592;SDS011;35499;51.482;4.264;2023-09-12T03:06:42;47.37;;;19.80;;
49592;SDS011;35499;51.482;4.264;2023-09-12T03:09:08;47.85;;;20.20;;
49592;SDS011;35499;51.482;4.264;2023-09-12T03:11:34;60.10;;;21.65;;
49592;SDS011;35499;51.482;4.264;2023-09-12T03:13:59;50.00;;;21.40;;
49592;SDS011;35499;51.482;4.264;2023-09-12T03:16:24;54.50;;;22.87;;
49592;SDS011;35499;51.482;4.264;2023-09-12T03:18:50;48.85;;;21.92;;
49592;SDS011;35499;51.482;4.264;2023-09-12T03:21:16;51.80;;;21.85;;
49592;SDS011;35499;51.482;4.264;2023-09-12T03:23:41;46.60;;;20.00;;
49592;SDS011;35499;51.482;4.264;2023-09-12T03:26:06;53.30;;;20.90;;
49592;SDS011;35499;51.482;4.264;2023-09-12T03:28:31;51.55;;;20.70;;
49592;SDS011;35499;51.482;4.264;2023-09-12T03:31:30;52.70;;;21.63;;
49592;SDS011;35499;51.482;4.264;2023-09-12T03:33:49;52.80;;;21.95;;
49592;SDS011;35499;51.482;4.264;2023-09-12T03:36:15;46.05;;;21.83;;
49592;SDS011;35499;51.482;4.264;2023-09-12T03:38:42;55.00;;;22.27;;
49592;SDS011;35499;51.482;4.264;2023-09-12T03:41:08;52.22;;;21.30;;
49592;SDS011;35499;51.482;4.264;2023-09-12T03:43:33;48.13;;;20.08;;
49592;SDS011;35499;51.482;4.264;2023-09-12T03:45:59;58.60;;;21.90;;
49592;SDS011;35499;51.482;4.264;2023-09-12T03:48:24;48.90;;;20.30;;
49592;SDS011;35499;51.482;4.264;2023-09-12T03:50:50;48.70;;;21.35;;
49592;SDS011;35499;51.482;4.264;2023-09-12T03:53:15;51.20;;;20.90;;
49592;SDS011;35499;51.482;4.264;2023-09-12T03:55:41;47.67;;;19.73;;
49592;SDS011;35499;51.482;4.264;2023-09-12T03:58:06;50.63;;;21.00;;
49592;SDS011;35499;51.482;4.264;2023-09-12T04:00:32;49.83;;;20.47;;
49592;SDS011;35499;51.482;4.264;2023-09-12T04:02:57;54.47;;;22.77;;
49592;SDS011;35499;51.482;4.264;2023-09-12T04:05:22;50.43;;;21.90;;
49592;SDS011;35499;51.482;4.264;2023-09-12T04:07:48;53.37;;;21.80;;
49592;SDS011;35499;51.482;4.264;2023-09-12T04:10:13;54.70;;;22.00;;
49592;SDS011;35499;51.482;4.264;2023-09-12T04:12:38;50.28;;;18.20;;
49592;SDS011;35499;51.482;4.264;2023-09-12T04:15:04;50.63;;;19.48;;
49592;SDS011;35499;51.482;4.264;2023-09-12T04:17:30;50.53;;;20.88;;
49592;SDS011;35499;51.482;4.264;2023-09-12T04:19:55;49.77;;;19.90;;
49592;SDS011;35499;51.482;4.264;2023-09-12T04:22:21;49.93;;;19.80;;
49592;SDS011;35499;51.482;4.264;2023-09-12T04:24:46;58.13;;;22.08;;
49592;SDS011;35499;51.482;4.264;2023-09-12T04:27:11;51.60;;;20.97;;
49592;SDS011;35499;51.482;4.264;2023-09-12T04:29:37;53.80;;;22.40;;
49592;SDS011;35499;51.482;4.264;2023-09-12T04:32:03;58.27;;;21.47;;
49592;SDS011;35499;51.482;4.264;2023-09-12T04:34:29;52.25;;;21.48;;
49592;SDS011;35499;51.482;4.264;2023-09-12T04:36:54;56.58;;;21.40;;
49592;SDS011;35499;51.482;4.264;2023-09-12T04:39:20;57.30;;;22.63;;
49592;SDS011;35499;51.482;4.264;2023-09-12T04:41:45;52.33;;;21.67;;
49592;SDS011;35499;51.482;4.264;2023-09-12T04:44:11;51.63;;;22.23;;
49592;SDS011;35499;51.482;4.264;2023-09-12T04:46:36;50.47;;;20.83;;
49592;SDS011;35499;51.482;4.264;2023-09-12T04:49:02;53.53;;;22.60;;
49592;SDS011;35499;51.482;4.264;2023-09-12T04:51:27;59.50;;;23.88;;
49592;SDS011;35499;51.482;4.264;2023-09-12T04:53:53;61.40;;;23.52;;
49592;SDS011;35499;51.482;4.264;2023-09-12T04:56:18;61.27;;;24.50;;
49592;SDS011;35499;51.482;4.264;2023-09-12T04:58:44;62.60;;;25.40;;
49592;SDS011;35499;51.482;4.264;2023-09-12T05:01:09;68.50;;;25.87;;
49592;SDS011;35499;51.482;4.264;2023-09-12T05:03:34;68.78;;;26.00;;
49592;SDS011;35499;51.482;4.264;2023-09-12T05:06:00;68.40;;;28.60;;
49592;SDS011;35499;51.482;4.264;2023-09-12T05:08:25;65.27;;;25.47;;
49592;SDS011;35499;51.482;4.264;2023-09-12T05:10:51;72.83;;;28.13;;
49592;SDS011;35499;51.482;4.264;2023-09-12T05:13:16;69.53;;;25.47;;
49592;SDS011;35499;51.482;4.264;2023-09-12T05:15:42;67.57;;;27.25;;
49592;SDS011;35499;51.482;4.264;2023-09-12T05:18:07;78.43;;;26.73;;
49592;SDS011;35499;51.482;4.264;2023-09-12T05:20:33;72.85;;;27.17;;
49592;SDS011;35499;51.482;4.264;2023-09-12T05:22:59;68.95;;;27.73;;
49592;SDS011;35499;51.482;4.264;2023-09-12T05:25:24;72.63;;;25.45;;
49592;SDS011;35499;51.482;4.264;2023-09-12T05:27:51;71.10;;;26.50;;
49592;SDS011;35499;51.482;4.264;2023-09-12T05:30:17;70.93;;;27.20;;
49592;SDS011;35499;51.482;4.264;2023-09-12T05:32:42;79.10;;;27.15;;
49592;SDS011;35499;51.482;4.264;2023-09-12T05:35:08;75.53;;;29.52;;
49592;SDS011;35499;51.482;4.264;2023-09-12T05:37:33;70.70;;;27.65;;
49592;SDS011;35499;51.482;4.264;2023-09-12T05:39:58;74.43;;;26.80;;
49592;SDS011;35499;51.482;4.264;2023-09-12T05:42:24;72.87;;;28.60;;
49592;SDS011;35499;51.482;4.264;2023-09-12T05:44:49;77.00;;;27.60;;
49592;SDS011;35499;51.482;4.264;2023-09-12T05:47:15;75.68;;;27.15;;
49592;SDS011;35499;51.482;4.264;2023-09-12T05:49:41;83.57;;;28.42;;
49592;SDS011;35499;51.482;4.264;2023-09-12T05:52:06;70.18;;;25.50;;
49592;SDS011;35499;51.482;4.264;2023-09-12T05:54:32;76.47;;;25.80;;
49592;SDS011;35499;51.482;4.264;2023-09-12T05:56:57;73.43;;;26.73;;
49592;SDS011;35499;51.482;4.264;2023-09-12T05:59:22;76.25;;;27.05;;
49592;SDS011;35499;51.482;4.264;2023-09-12T06:01:48;75.18;;;26.88;;
49592;SDS011;35499;51.482;4.264;2023-09-12T06:04:14;75.07;;;29.55;;
49592;SDS011;35499;51.482;4.264;2023-09-12T06:06:39;89.07;;;30.55;;
49592;SDS011;35499;51.482;4.264;2023-09-12T06:09:05;80.97;;;28.33;;
49592;SDS011;35499;51.482;4.264;2023-09-12T06:11:30;81.07;;;28.02;;
49592;SDS011;35499;51.482;4.264;2023-09-12T06:13:56;81.47;;;30.08;;
49592;SDS011;35499;51.482;4.264;2023-09-12T06:16:22;76.38;;;28.55;;
49592;SDS011;35499;51.482;4.264;2023-09-12T06:18:47;78.22;;;27.08;;
49592;SDS011;35499;51.482;4.264;2023-09-12T06:21:13;81.68;;;29.85;;
49592;SDS011;35499;51.482;4.264;2023-09-12T06:23:39;79.55;;;29.73;;
49592;SDS011;35499;51.482;4.264;2023-09-12T06:26:04;87.80;;;31.07;;
49592;SDS011;35499;51.482;4.264;2023-09-12T06:28:30;83.90;;;32.33;;
49592;SDS011;35499;51.482;4.264;2023-09-12T06:30:56;80.88;;;31.92;;
49592;SDS011;35499;51.482;4.264;2023-09-12T06:33:22;74.88;;;28.75;;
49592;SDS011;35499;51.482;4.264;2023-09-12T06:35:51;69.47;;;28.90;;
49592;SDS011;35499;51.482;4.264;2023-09-12T06:38:21;71.43;;;30.08;;
49592;SDS011;35499;51.482;4.264;2023-09-12T06:40:47;79.22;;;31.50;;
49592;SDS011;35499;51.482;4.264;2023-09-12T06:43:13;76.82;;;27.08;;
49592;SDS011;35499;51.482;4.264;2023-09-12T06:45:40;84.03;;;31.05;;
49592;SDS011;35499;51.482;4.264;2023-09-12T06:48:06;77.30;;;29.83;;
49592;SDS011;35499;51.482;4.264;2023-09-12T06:50:31;69.87;;;30.07;;
49592;SDS011;35499;51.482;4.264;2023-09-12T06:52:56;78.33;;;29.33;;
49592;SDS011;35499;51.482;4.264;2023-09-12T06:55:22;80.23;;;31.70;;
49592;SDS011;35499;51.482;4.264;2023-09-12T06:57:47;78.95;;;33.03;;
49592;SDS011;35499;51.482;4.264;2023-09-12T07:00:12;78.37;;;30.00;;
49592;SDS011;35499;51.482;4.264;2023-09-12T07:02:38;76.30;;;30.73;;
49592;SDS011;35499;51.482;4.264;2023-09-12T07:05:04;73.65;;;30.17;;
49592;SDS011;35499;51.482;4.264;2023-09-12T07:07:30;76.43;;;29.17;;
49592;SDS011;35499;51.482;4.264;2023-09-12T07:09:55;68.80;;;28.55;;
49592;SDS011;35499;51.482;4.264;2023-09-12T07:12:21;72.18;;;27.50;;
49592;SDS011;35499;51.482;4.264;2023-09-12T07:14:46;74.37;;;29.53;;
49592;SDS011;35499;51.482;4.264;2023-09-12T07:17:12;77.77;;;30.73;;
49592;SDS011;35499;51.482;4.264;2023-09-12T07:19:37;77.20;;;31.25;;
49592;SDS011;35499;51.482;4.264;2023-09-12T07:22:03;69.43;;;28.10;;
49592;SDS011;35499;51.482;4.264;2023-09-12T07:24:28;66.65;;;27.23;;
49592;SDS011;35499;51.482;4.264;2023-09-12T07:26:54;72.90;;;29.25;;
49592;SDS011;35499;51.482;4.264;2023-09-12T07:29:19;63.37;;;28.60;;
49592;SDS011;35499;51.482;4.264;2023-09-12T07:31:44;68.65;;;27.92;;
49592;SDS011;35499;51.482;4.264;2023-09-12T07:34:10;70.03;;;26.57;;
49592;SDS011;35499;51.482;4.264;2023-09-12T07:36:37;62.92;;;24.85;;
49592;SDS011;35499;51.482;4.264;2023-09-12T07:39:02;64.68;;;27.40;;
49592;SDS011;35499;51.482;4.264;2023-09-12T07:41:28;72.15;;;28.52;;
49592;SDS011;35499;51.482;4.264;2023-09-12T07:43:54;59.97;;;24.52;;
49592;SDS011;35499;51.482;4.264;2023-09-12T07:46:19;63.47;;;25.77;;
49592;SDS011;35499;51.482;4.264;2023-09-12T07:48:45;71.97;;;28.73;;
49592;SDS011;35499;51.482;4.264;2023-09-12T07:51:11;69.53;;;28.77;;
49592;SDS011;35499;51.482;4.264;2023-09-12T07:53:37;64.97;;;28.80;;
49592;SDS011;35499;51.482;4.264;2023-09-12T07:56:02;63.77;;;28.77;;
49592;SDS011;35499;51.482;4.264;2023-09-12T07:58:28;65.20;;;27.83;;
49592;SDS011;35499;51.482;4.264;2023-09-12T08:00:53;68.73;;;29.13;;
49592;SDS011;35499;51.482;4.264;2023-09-12T08:03:18;65.50;;;28.87;;
49592;SDS011;35499;51.482;4.264;2023-09-12T08:05:44;60.33;;;26.00;;
49592;SDS011;35499;51.482;4.264;2023-09-12T08:08:09;61.20;;;28.00;;
49592;SDS011;35499;51.482;4.264;2023-09-12T08:10:34;64.70;;;30.20;;
49592;SDS011;35499;51.482;4.264;2023-09-12T08:13:00;62.10;;;29.03;;
49592;SDS011;35499;51.482;4.264;2023-09-12T08:15:25;58.63;;;28.33;;
49592;SDS011;35499;51.482;4.264;2023-09-12T08:17:50;66.60;;;30.60;;
49592;SDS011;35499;51.482;4.264;2023-09-12T08:20:18;64.10;;;29.65;;
49592;SDS011;35499;51.482;4.264;2023-09-12T08:22:44;59.20;;;28.20;;
49592;SDS011;35499;51.482;4.264;2023-09-12T08:25:09;59.60;;;26.60;;
49592;SDS011;35499;51.482;4.264;2023-09-12T08:27:37;61.20;;;27.25;;
49592;SDS011;35499;51.482;4.264;2023-09-12T08:30:02;64.60;;;28.77;;
49592;SDS011;35499;51.482;4.264;2023-09-12T08:32:29;61.03;;;27.58;;
49592;SDS011;35499;51.482;4.264;2023-09-12T08:34:54;62.57;;;29.27;;
49592;SDS011;35499;51.482;4.264;2023-09-12T08:37:19;62.87;;;26.77;;
49592;SDS011;35499;51.482;4.264;2023-09-12T08:39:45;64.65;;;28.58;;
49592;SDS011;35499;51.482;4.264;2023-09-12T08:42:14;69.00;;;31.00;;
49592;SDS011;35499;51.482;4.264;2023-09-12T08:44:41;67.28;;;28.70;;
49592;SDS011;35499;51.482;4.264;2023-09-12T08:49:33;70.97;;;30.98;;
49592;SDS011;35499;51.482;4.264;2023-09-12T08:52:00;65.10;;;30.50;;
49592;SDS011;35499;51.482;4.264;2023-09-12T08:54:25;76.45;;;31.55;;
49592;SDS011;35499;51.482;4.264;2023-09-12T08:56:51;73.27;;;30.53;;
49592;SDS011;35499;51.482;4.264;2023-09-12T08:59:16;77.53;;;32.40;;
49592;SDS011;35499;51.482;4.264;2023-09-12T09:04:33;76.30;;;31.90;;
49592;SDS011;35499;51.482;4.264;2023-09-12T09:06:59;65.60;;;27.83;;
49592;SDS011;35499;51.482;4.264;2023-09-12T09:09:26;66.78;;;25.95;;
49592;SDS011;35499;51.482;4.264;2023-09-12T09:11:53;62.17;;;25.10;;
49592;SDS011;35499;51.482;4.264;2023-09-12T09:14:18;57.25;;;23.55;;
49592;SDS011;35499;51.482;4.264;2023-09-12T09:16:44;58.03;;;23.23;;
49592;SDS011;35499;51.482;4.264;2023-09-12T09:19:09;56.73;;;23.80;;
49592;SDS011;35499;51.482;4.264;2023-09-12T09:24:06;55.60;;;23.77;;
49592;SDS011;35499;51.482;4.264;2023-09-12T09:26:51;51.25;;;22.27;;
49592;SDS011;35499;51.482;4.264;2023-09-12T09:29:18;52.58;;;23.77;;
49592;SDS011;35499;51.482;4.264;2023-09-12T09:31:46;50.45;;;22.33;;
49592;SDS011;35499;51.482;4.264;2023-09-12T09:34:16;53.38;;;23.38;;
49592;SDS011;35499;51.482;4.264;2023-09-12T09:36:52;49.22;;;24.23;;
49592;SDS011;35499;51.482;4.264;2023-09-12T09:39:19;49.42;;;23.20;;
49592;SDS011;35499;51.482;4.264;2023-09-12T09:41:49;52.05;;;24.10;;
49592;SDS011;35499;51.482;4.264;2023-09-12T09:44:16;45.05;;;22.60;;
49592;SDS011;35499;51.482;4.264;2023-09-12T09:46:45;44.22;;;22.52;;
49592;SDS011;35499;51.482;4.264;2023-09-12T09:49:11;43.70;;;22.15;;
49592;SDS011;35499;51.482;4.264;2023-09-12T09:51:42;54.17;;;25.20;;
49592;SDS011;35499;51.482;4.264;2023-09-12T09:54:08;53.35;;;25.20;;
49592;SDS011;35499;51.482;4.264;2023-09-12T09:56:39;47.47;;;23.92;;
49592;SDS011;35499;51.482;4.264;2023-09-12T09:59:16;50.25;;;24.60;;
49592;SDS011;35499;51.482;4.264;2023-09-12T10:01:43;52.83;;;24.83;;
49592;SDS011;35499;51.482;4.264;2023-09-12T10:04:10;60.83;;;28.98;;
49592;SDS011;35499;51.482;4.264;2023-09-12T10:09:01;72.72;;;32.35;;
49592;SDS011;35499;51.482;4.264;2023-09-12T10:11:31;77.78;;;33.97;;
49592;SDS011;35499;51.482;4.264;2023-09-12T10:14:03;82.75;;;35.72;;
49592;SDS011;35499;51.482;4.264;2023-09-12T10:16:30;82.70;;;36.78;;
49592;SDS011;35499;51.482;4.264;2023-09-12T10:19:39;84.18;;;36.47;;
49592;SDS011;35499;51.482;4.264;2023-09-12T10:24:18;85.72;;;38.67;;
49592;SDS011;35499;51.482;4.264;2023-09-12T10:26:46;95.20;;;39.80;;
49592;SDS011;35499;51.482;4.264;2023-09-12T10:29:14;84.55;;;36.50;;
49592;SDS011;35499;51.482;4.264;2023-09-12T10:31:42;80.78;;;36.08;;
49592;SDS011;35499;51.482;4.264;2023-09-12T10:36:41;69.40;;;31.40;;
49592;SDS011;35499;51.482;4.264;2023-09-12T10:39:07;70.95;;;31.35;;
49592;SDS011;35499;51.482;4.264;2023-09-12T10:41:37;60.88;;;28.08;;
49592;SDS011;35499;51.482;4.264;2023-09-12T10:44:09;58.22;;;27.38;;
49592;SDS011;35499;51.482;4.264;2023-09-12T10:46:39;55.42;;;26.35;;
49592;SDS011;35499;51.482;4.264;2023-09-12T10:49:06;49.05;;;24.45;;
49592;SDS011;35499;51.482;4.264;2023-09-12T10:51:41;56.85;;;24.55;;
49592;SDS011;35499;51.482;4.264;2023-09-12T10:54:08;55.30;;;25.58;;
49592;SDS011;35499;51.482;4.264;2023-09-12T10:56:35;46.55;;;22.08;;
49592;SDS011;35499;51.482;4.264;2023-09-12T11:06:45;35.88;;;17.45;;
49592;SDS011;35499;51.482;4.264;2023-09-12T11:11:49;35.80;;;17.77;;
49592;SDS011;35499;51.482;4.264;2023-09-12T11:14:19;33.22;;;15.65;;
49592;SDS011;35499;51.482;4.264;2023-09-12T11:22:24;33.60;;;15.23;;
49592;SDS011;35499;51.482;4.264;2023-09-12T11:24:51;29.63;;;14.80;;
49592;SDS011;35499;51.482;4.264;2023-09-12T11:27:16;31.98;;;14.95;;
49592;SDS011;35499;51.482;4.264;2023-09-12T11:29:42;31.83;;;15.30;;
49592;SDS011;35499;51.482;4.264;2023-09-12T11:32:07;32.92;;;15.90;;
49592;SDS011;35499;51.482;4.264;2023-09-12T11:34:38;33.60;;;15.88;;
49592;SDS011;35499;51.482;4.264;2023-09-12T11:37:06;33.28;;;16.10;;
49592;SDS011;35499;51.482;4.264;2023-09-12T11:39:35;33.65;;;17.45;;
49592;SDS011;35499;51.482;4.264;2023-09-12T11:42:02;39.80;;;18.38;;
49592;SDS011;35499;51.482;4.264;2023-09-12T11:44:29;37.40;;;17.20;;
49592;SDS011;35499;51.482;4.264;2023-09-12T11:46:56;36.70;;;16.70;;
49592;SDS011;35499;51.482;4.264;2023-09-12T11:49:28;40.60;;;18.23;;
49592;SDS011;35499;51.482;4.264;2023-09-12T11:52:01;40.58;;;17.23;;
49592;SDS011;35499;51.482;4.264;2023-09-12T11:56:54;40.70;;;18.83;;
49592;SDS011;35499;51.482;4.264;2023-09-12T11:59:22;42.30;;;18.42;;
49592;SDS011;35499;51.482;4.264;2023-09-12T12:01:48;46.05;;;20.65;;
49592;SDS011;35499;51.482;4.264;2023-09-12T12:04:14;43.28;;;17.67;;
49592;SDS011;35499;51.482;4.264;2023-09-12T12:06:39;44.80;;;20.13;;
49592;SDS011;35499;51.482;4.264;2023-09-12T12:09:06;45.45;;;20.40;;
49592;SDS011;35499;51.482;4.264;2023-09-12T12:11:31;47.20;;;20.65;;
49592;SDS011;35499;51.482;4.264;2023-09-12T12:13:57;45.75;;;21.23;;
49592;SDS011;35499;51.482;4.264;2023-09-12T12:16:24;42.10;;;19.20;;
49592;SDS011;35499;51.482;4.264;2023-09-12T12:18:50;43.90;;;19.90;;
49592;SDS011;35499;51.482;4.264;2023-09-12T12:21:19;47.83;;;22.15;;
49592;SDS011;35499;51.482;4.264;2023-09-12T12:23:44;48.65;;;21.65;;
49592;SDS011;35499;51.482;4.264;2023-09-12T12:26:10;47.47;;;20.87;;
49592;SDS011;35499;51.482;4.264;2023-09-12T12:28:35;46.58;;;21.95;;
49592;SDS011;35499;51.482;4.264;2023-09-12T12:31:01;48.85;;;22.10;;
49592;SDS011;35499;51.482;4.264;2023-09-12T12:33:26;41.95;;;20.45;;
49592;SDS011;35499;51.482;4.264;2023-09-12T12:36:04;35.95;;;17.52;;
49592;SDS011;35499;51.482;4.264;2023-09-12T12:41:00;35.28;;;15.98;;
49592;SDS011;35499;51.482;4.264;2023-09-12T12:43:25;31.65;;;17.70;;
49592;SDS011;35499;51.482;4.264;2023-09-12T12:45:55;30.02;;;15.82;;
49592;SDS011;35499;51.482;4.264;2023-09-12T12:50:57;33.22;;;17.27;;
49592;SDS011;35499;51.482;4.264;2023-09-12T12:53:38;24.58;;;13.43;;
49592;SDS011;35499;51.482;4.264;2023-09-12T12:56:04;29.33;;;15.23;;
49592;SDS011;35499;51.482;4.264;2023-09-12T12:58:30;24.13;;;14.40;;
49592;SDS011;35499;51.482;4.264;2023-09-12T13:00:55;24.63;;;14.97;;
49592;SDS011;35499;51.482;4.264;2023-09-12T13:03:21;22.13;;;13.82;;
49592;SDS011;35499;51.482;4.264;2023-09-12T13:05:46;23.83;;;14.60;;
49592;SDS011;35499;51.482;4.264;2023-09-12T13:08:11;25.77;;;13.70;;
49592;SDS011;35499;51.482;4.264;2023-09-12T13:10:36;23.73;;;14.37;;
49592;SDS011;35499;51.482;4.264;2023-09-12T13:13:02;23.80;;;13.50;;
49592;SDS011;35499;51.482;4.264;2023-09-12T13:15:29;23.75;;;14.52;;
49592;SDS011;35499;51.482;4.264;2023-09-12T13:17:54;22.67;;;13.70;;
49592;SDS011;35499;51.482;4.264;2023-09-12T13:20:19;23.37;;;14.77;;
49592;SDS011;35499;51.482;4.264;2023-09-12T13:22:45;24.43;;;14.20;;
49592;SDS011;35499;51.482;4.264;2023-09-12T13:25:10;22.97;;;14.93;;
49592;SDS011;35499;51.482;4.264;2023-09-12T13:27:35;20.27;;;14.57;;
49592;SDS011;35499;51.482;4.264;2023-09-12T13:30:01;20.87;;;13.70;;
49592;SDS011;35499;51.482;4.264;2023-09-12T13:32:28;21.40;;;14.43;;
49592;SDS011;35499;51.482;4.264;2023-09-12T13:34:53;19.58;;;13.52;;
49592;SDS011;35499;51.482;4.264;2023-09-12T13:37:19;20.67;;;14.00;;
49592;SDS011;35499;51.482;4.264;2023-09-12T13:39:46;24.13;;;13.85;;
49592;SDS011;35499;51.482;4.264;2023-09-12T13:42:14;21.67;;;14.77;;
49592;SDS011;35499;51.482;4.264;2023-09-12T13:44:43;19.88;;;13.00;;
49592;SDS011;35499;51.482;4.264;2023-09-12T13:47:08;25.92;;;15.57;;
49592;SDS011;35499;51.482;4.264;2023-09-12T13:49:34;28.63;;;14.57;;
49592;SDS011;35499;51.482;4.264;2023-09-12T13:51:59;24.70;;;16.03;;
49592;SDS011;35499;51.482;4.264;2023-09-12T13:54:24;25.13;;;15.47;;
49592;SDS011;35499;51.482;4.264;2023-09-12T13:56:50;29.50;;;18.83;;
49592;SDS011;35499;51.482;4.264;2023-09-12T13:59:15;31.33;;;18.60;;
49592;SDS011;35499;51.482;4.264;2023-09-12T14:01:41;31.52;;;19.77;;
49592;SDS011;35499;51.482;4.264;2023-09-12T14:04:06;33.55;;;20.17;;
49592;SDS011;35499;51.482;4.264;2023-09-12T14:06:32;31.87;;;20.47;;
49592;SDS011;35499;51.482;4.264;2023-09-12T14:11:23;36.08;;;20.95;;
49592;SDS011;35499;51.482;4.264;2023-09-12T14:13:48;34.80;;;20.67;;
49592;SDS011;35499;51.482;4.264;2023-09-12T14:16:14;36.23;;;22.10;;
49592;SDS011;35499;51.482;4.264;2023-09-12T14:18:39;34.67;;;20.90;;
49592;SDS011;35499;51.482;4.264;2023-09-12T14:21:04;34.67;;;22.53;;
49592;SDS011;35499;51.482;4.264;2023-09-12T14:23:29;39.30;;;23.30;;
49592;SDS011;35499;51.482;4.264;2023-09-12T14:25:55;35.50;;;21.50;;
49592;SDS011;35499;51.482;4.264;2023-09-12T14:28:20;36.70;;;21.93;;
49592;SDS011;35499;51.482;4.264;2023-09-12T14:30:46;34.88;;;20.98;;
49592;SDS011;35499;51.482;4.264;2023-09-12T14:33:11;36.95;;;21.95;;
49592;SDS011;35499;51.482;4.264;2023-09-12T14:35:37;34.88;;;20.05;;
49592;SDS011;35499;51.482;4.264;2023-09-12T14:38:03;36.35;;;21.52;;
49592;SDS011;35499;51.482;4.264;2023-09-12T14:40:29;34.50;;;19.33;;
49592;SDS011;35499;51.482;4.264;2023-09-12T14:42:54;35.03;;;20.27;;
49592;SDS011;35499;51.482;4.264;2023-09-12T14:45:20;37.00;;;22.13;;
49592;SDS011;35499;51.482;4.264;2023-09-12T14:47:45;36.97;;;20.33;;
49592;SDS011;35499;51.482;4.264;2023-09-12T14:50:10;32.13;;;20.57;;
49592;SDS011;35499;51.482;4.264;2023-09-12T14:52:36;33.60;;;19.70;;
49592;SDS011;35499;51.482;4.264;2023-09-12T14:55:03;34.83;;;20.27;;
49592;SDS011;35499;51.482;4.264;2023-09-12T14:57:29;33.97;;;20.05;;
49592;SDS011;35499;51.482;4.264;2023-09-12T14:59:55;34.22;;;19.42;;
49592;SDS011;35499;51.482;4.264;2023-09-12T15:02:22;33.33;;;18.85;;
49592;SDS011;35499;51.482;4.264;2023-09-12T15:04:47;31.60;;;18.65;;
49592;SDS011;35499;51.482;4.264;2023-09-12T15:07:13;31.77;;;17.50;;